createdAt,value
2019-04-09T00:01:13.766Z,9.80
2019-04-09T00:03:44.026Z,12.10
2019-04-09T00:06:14.737Z,10.47
2019-04-09T00:08:45.710Z,11.37
2019-04-09T00:11:15.814Z,11.83
2019-04-09T00:13:46.012Z,10.63
2019-04-09T00:16:16.582Z,11.60
2019-04-09T00:18:46.805Z,12.10
2019-04-09T00:21:17.015Z,12.13
2019-04-09T00:23:47.198Z,11.27
2019-04-09T00:26:17.781Z,11.77
2019-04-09T00:28:47.956Z,10.77
2019-04-09T00:31:18.465Z,12.17
2019-04-09T00:33:48.969Z,13.53
2019-04-09T00:36:19.652Z,11.87
2019-04-09T00:38:49.793Z,11.80
2019-04-09T00:41:21.757Z,11.90
2019-04-09T00:43:51.861Z,14.70
2019-04-09T00:46:22.076Z,15.10
2019-04-09T00:48:52.224Z,13.83
2019-04-09T00:51:22.495Z,18.63
2019-04-09T00:53:52.491Z,12.03
2019-04-09T00:56:22.635Z,12.00
2019-04-09T00:58:52.801Z,12.57
2019-04-09T01:01:24.716Z,12.83
2019-04-09T01:03:54.989Z,14.67
2019-04-09T01:06:25.242Z,13.10
2019-04-09T01:08:56.195Z,13.50
2019-04-09T01:11:26.303Z,11.60
2019-04-09T01:13:57.441Z,11.80
2019-04-09T01:16:27.322Z,14.00
2019-04-09T01:19:08.457Z,12.77
2019-04-09T01:21:29.483Z,12.93
2019-04-09T01:23:59.787Z,10.93
2019-04-09T01:26:38.379Z,10.60
2019-04-09T01:29:10.267Z,10.40
2019-04-09T01:31:48.334Z,13.03
2019-04-09T01:34:32.027Z,12.60
2019-04-09T01:37:20.335Z,11.60
2019-04-09T01:40:01.091Z,12.60
2019-04-09T01:42:49.533Z,12.27
2019-04-09T01:45:37.461Z,11.53
2019-04-09T01:48:25.851Z,10.47
2019-04-09T01:50:57.910Z,13.23
2019-04-09T01:53:32.315Z,11.23
2019-04-09T01:56:20.734Z,12.93
2019-04-09T01:58:52.440Z,12.43
2019-04-09T02:01:28.040Z,10.40
2019-04-09T02:04:00.273Z,12.97
2019-04-09T02:06:41.572Z,10.43
2019-04-09T02:09:25.801Z,13.40
2019-04-09T02:11:59.925Z,12.23
2019-04-09T02:14:50.004Z,14.30
2019-04-09T02:17:24.644Z,8.93
2019-04-09T02:19:56.468Z,12.20
2019-04-09T02:22:44.915Z,13.67
2019-04-09T02:25:23.033Z,11.87
2019-04-09T02:28:11.131Z,12.57
2019-04-09T02:31:02.210Z,12.60
2019-04-09T02:33:34.109Z,11.27
2019-04-09T02:36:21.971Z,12.20
2019-04-09T02:39:03.069Z,13.47
2019-04-09T02:41:41.375Z,11.53
2019-04-09T02:44:13.511Z,12.90
2019-04-09T02:46:54.153Z,10.27
2019-04-09T02:49:26.657Z,10.83
2019-04-09T02:52:11.280Z,11.30
2019-04-09T02:54:44.067Z,12.23
2019-04-09T02:57:30.955Z,11.90
2019-04-09T03:00:18.985Z,9.50
2019-04-09T03:03:07.259Z,14.77
2019-04-09T03:05:55.564Z,13.93
2019-04-09T03:08:43.701Z,17.50
2019-04-09T03:11:15.489Z,11.27
2019-04-09T03:13:56.178Z,13.53
2019-04-09T03:16:37.876Z,12.97
2019-04-09T03:22:27.242Z,11.80
2019-04-09T03:24:59.274Z,11.73
2019-04-09T03:27:31.183Z,9.73
2019-04-09T03:30:05.977Z,12.10
2019-04-09T03:32:44.494Z,13.63
2019-04-09T03:35:23.283Z,11.70
2019-04-09T03:37:54.829Z,12.83
2019-04-09T03:40:29.606Z,18.07
2019-04-09T03:43:04.025Z,14.93
2019-04-09T03:45:54.152Z,10.27
2019-04-09T03:48:25.996Z,13.93
2019-04-09T03:51:06.890Z,14.07
2019-04-09T03:53:39.238Z,13.23
2019-04-09T03:56:18.083Z,13.40
2019-04-09T03:59:00.357Z,13.90
2019-04-09T04:01:41.162Z,13.80
2019-04-09T04:04:13.023Z,11.93
2019-04-09T04:07:20.390Z,14.00
2019-04-09T04:10:07.495Z,12.00
2019-04-09T04:12:55.634Z,11.70
2019-04-09T04:15:43.340Z,12.10
2019-04-09T04:18:34.485Z,12.37
2019-04-09T04:21:07.978Z,14.47
2019-04-09T04:23:39.511Z,12.70
2019-04-09T04:26:28.728Z,14.37
2019-04-09T04:29:19.180Z,13.33
2019-04-09T04:31:54.853Z,15.87
2019-04-09T04:34:32.343Z,13.40
2019-04-09T04:37:13.324Z,14.23
2019-04-09T04:40:02.172Z,11.73
2019-04-09T04:42:43.763Z,13.50
2019-04-09T04:45:18.495Z,12.83
2019-04-09T04:48:06.868Z,12.47
2019-04-09T04:50:41.781Z,14.90
2019-04-09T04:53:22.518Z,12.80
2019-04-09T04:55:54.251Z,12.03
2019-04-09T04:58:48.094Z,13.63
2019-04-09T05:01:26.551Z,13.63
2019-04-09T05:04:13.343Z,13.07
2019-04-09T05:06:47.897Z,11.37
2019-04-09T05:09:19.574Z,10.27
2019-04-09T05:12:09.766Z,8.23
2019-04-09T05:14:53.433Z,10.20
2019-04-09T05:17:28.828Z,23.10
2019-04-09T05:20:13.125Z,11.13
2019-04-09T05:22:50.056Z,12.23
2019-04-09T05:25:38.342Z,12.67
2019-04-09T05:28:12.784Z,11.93
2019-04-09T05:30:48.557Z,12.80
2019-04-09T05:33:22.466Z,12.90
2019-04-09T05:36:11.818Z,14.43
2019-04-09T05:38:49.506Z,20.80
2019-04-09T05:41:36.129Z,20.63
2019-04-09T05:44:22.320Z,15.43
2019-04-09T05:46:54.220Z,22.03
2019-04-09T05:49:32.120Z,10.97
2019-04-09T05:52:20.787Z,11.90
2019-04-09T05:54:58.281Z,15.10
2019-04-09T05:57:46.666Z,13.23
2019-04-09T06:00:21.437Z,12.73
2019-04-09T06:02:53.561Z,12.97
2019-04-09T06:05:28.898Z,13.63
2019-04-09T06:08:01.742Z,10.97
2019-04-09T06:10:32.254Z,15.07
2019-04-09T06:13:02.987Z,13.80
2019-04-09T06:15:33.242Z,13.97
2019-04-09T06:18:03.176Z,10.23
2019-04-09T06:20:34.050Z,13.13
2019-04-09T06:23:04.271Z,10.23
2019-04-09T06:25:35.960Z,12.23
2019-04-09T06:28:06.236Z,9.30
2019-04-09T06:30:36.276Z,12.70
2019-04-09T06:33:08.039Z,11.83
2019-04-09T06:35:46.325Z,12.60
2019-04-09T06:38:35.484Z,14.03
2019-04-09T06:41:24.053Z,20.17
2019-04-09T06:44:04.899Z,12.90
2019-04-09T06:46:42.145Z,11.03
2019-04-09T06:49:17.775Z,10.33
2019-04-09T06:52:04.940Z,9.70
2019-04-09T06:55:00.751Z,9.23
2019-04-09T06:57:49.917Z,11.43
2019-04-09T07:00:41.066Z,16.77
2019-04-09T07:03:24.727Z,13.17
2019-04-09T07:06:14.571Z,14.20
2019-04-09T07:08:49.326Z,9.87
2019-04-09T07:11:24.509Z,11.00
2019-04-09T07:14:08.411Z,13.60
2019-04-09T07:16:52.286Z,11.30
2019-04-09T07:19:41.167Z,9.60
2019-04-09T07:22:15.050Z,11.60
2019-04-09T07:24:55.137Z,8.90
2019-04-09T07:27:28.554Z,10.23
2019-04-09T07:30:11.138Z,9.27
2019-04-09T07:32:46.025Z,11.40
2019-04-09T07:35:29.527Z,9.57
2019-04-09T07:38:00.087Z,10.47
2019-04-09T07:40:44.793Z,14.40
2019-04-09T07:43:21.117Z,14.80
2019-04-09T07:46:04.880Z,10.33
2019-04-09T07:48:40.463Z,9.83
2019-04-09T07:51:30.706Z,9.40
2019-04-09T07:54:04.669Z,10.30
2019-04-09T07:56:36.590Z,15.10
2019-04-09T07:59:24.504Z,9.80
2019-04-09T08:01:53.812Z,8.73
2019-04-09T08:04:26.133Z,9.60
2019-04-09T08:07:02.280Z,10.03
2019-04-09T08:09:33.641Z,9.10
2019-04-09T08:12:21.894Z,11.03
2019-04-09T08:15:08.943Z,13.90
2019-04-09T08:18:03.200Z,15.00
2019-04-09T08:20:35.744Z,10.60
2019-04-09T08:23:27.011Z,12.97
2019-04-09T08:26:15.063Z,12.57
2019-04-09T08:28:56.280Z,10.07
2019-04-09T08:31:28.697Z,9.40
2019-04-09T08:34:16.623Z,12.53
2019-04-09T08:36:55.697Z,12.07
2019-04-09T08:39:32.878Z,11.53
2019-04-09T08:42:06.579Z,10.20
2019-04-09T08:44:39.612Z,9.43
2019-04-09T08:47:17.142Z,8.83
2019-04-09T08:49:53.350Z,8.80
2019-04-09T08:52:40.890Z,11.83
2019-04-09T08:55:11.704Z,11.83
2019-04-09T08:57:52.415Z,9.10
2019-04-09T09:01:08.269Z,7.97
2019-04-09T09:03:10.640Z,9.50
2019-04-09T09:06:02.289Z,11.40
2019-04-09T09:08:37.195Z,10.23
2019-04-09T09:11:27.786Z,10.97
2019-04-09T09:14:22.932Z,29.57
2019-04-09T09:17:08.719Z,13.60
2019-04-09T09:19:55.290Z,7.50
2019-04-09T09:22:27.246Z,11.70
2019-04-09T09:25:04.046Z,11.23
2019-04-09T09:27:54.120Z,10.03
2019-04-09T09:30:56.164Z,14.10
2019-04-09T09:33:15.791Z,13.70
2019-04-09T09:36:06.141Z,9.73
2019-04-09T09:38:42.194Z,7.83
2019-04-09T09:41:30.771Z,10.90
2019-04-09T09:44:03.187Z,11.20
2019-04-09T09:46:42.415Z,10.30
2019-04-09T09:49:39.115Z,8.17
2019-04-09T09:52:28.013Z,8.70
2019-04-09T09:55:21.538Z,9.77
2019-04-09T09:57:52.473Z,7.87
2019-04-09T10:00:38.876Z,11.70
2019-04-09T10:03:11.365Z,13.13
2019-04-09T10:05:52.204Z,10.10
2019-04-09T10:08:43.825Z,11.00
2019-04-09T10:11:15.627Z,9.83
2019-04-09T10:13:47.264Z,15.83
2019-04-09T10:16:25.902Z,11.00
2019-04-09T10:19:22.104Z,9.60
2019-04-09T10:22:05.535Z,13.33
2019-04-09T10:24:40.389Z,12.40
2019-04-09T10:27:38.904Z,14.77
2019-04-09T10:30:20.405Z,13.03
2019-04-09T10:32:55.244Z,17.80
2019-04-09T10:35:36.110Z,16.23
2019-04-09T10:38:08.134Z,14.77
2019-04-09T10:40:56.647Z,14.73
2019-04-09T10:43:46.014Z,16.30
2019-04-09T10:46:31.964Z,14.97
2019-04-09T10:49:08.166Z,16.70
2019-04-09T10:51:43.219Z,16.27
2019-04-09T10:54:27.847Z,14.00
2019-04-09T10:57:19.474Z,15.13
2019-04-09T10:59:55.275Z,13.53
2019-04-09T11:02:33.186Z,22.53
2019-04-09T11:05:07.662Z,14.63
2019-04-09T11:10:34.327Z,14.90
2019-04-09T11:13:10.158Z,13.80
2019-04-09T11:15:42.659Z,15.97
2019-04-09T11:18:21.244Z,13.20
2019-04-09T11:21:01.024Z,13.50
2019-04-09T11:23:29.818Z,13.67
2019-04-09T11:26:18.086Z,10.73
2019-04-09T11:29:00.415Z,14.23
2019-04-09T11:31:53.321Z,14.37
2019-04-09T11:34:41.713Z,13.10
2019-04-09T11:37:19.412Z,14.27
2019-04-09T11:40:03.268Z,14.10
2019-04-09T11:42:37.504Z,11.57
2019-04-09T11:45:29.412Z,11.93
2019-04-09T11:48:05.634Z,11.77
2019-04-09T11:50:54.074Z,12.73
2019-04-09T11:53:37.578Z,13.00
2019-04-09T11:56:22.019Z,11.33
2019-04-09T11:59:05.324Z,10.70
2019-04-09T12:01:37.058Z,10.50
2019-04-09T12:04:21.483Z,10.10
2019-04-09T12:07:09.412Z,11.40
2019-04-09T12:09:41.135Z,10.87
2019-04-09T12:12:15.736Z,10.60
2019-04-09T12:14:48.325Z,9.70
2019-04-09T12:17:37.383Z,15.33
2019-04-09T12:20:16.901Z,15.87
2019-04-09T12:22:51.353Z,9.33
2019-04-09T12:25:28.792Z,14.10
2019-04-09T12:28:02.676Z,11.20
2019-04-09T12:30:36.860Z,12.07
2019-04-09T12:33:09.263Z,15.07
2019-04-09T12:35:57.286Z,9.40
2019-04-09T12:38:45.542Z,10.30
2019-04-09T12:41:17.327Z,15.03
2019-04-09T12:43:56.199Z,11.13
2019-04-09T12:46:29.068Z,9.03
2019-04-09T12:49:04.268Z,15.70
2019-04-09T12:51:35.784Z,12.43
2019-04-09T12:54:08.346Z,10.83
2019-04-09T12:56:55.419Z,12.90
2019-04-09T12:59:29.531Z,10.17
2019-04-09T13:02:00.901Z,14.10
2019-04-09T13:04:32.186Z,10.90
2019-04-09T13:07:21.632Z,13.40
2019-04-09T13:09:59.118Z,10.90
2019-04-09T13:12:46.526Z,11.23
2019-04-09T13:15:34.536Z,10.00
2019-04-09T13:18:06.784Z,12.37
2019-04-09T13:20:38.148Z,12.67
2019-04-09T13:23:09.607Z,13.33
2019-04-09T13:25:56.028Z,11.67
2019-04-09T13:28:32.383Z,13.27
2019-04-09T13:31:03.819Z,12.77
2019-04-09T13:33:35.171Z,12.10
2019-04-09T13:36:06.718Z,12.53
2019-04-09T13:38:43.703Z,12.30
2019-04-09T13:41:31.786Z,17.30
2019-04-09T13:44:09.127Z,13.67
2019-04-09T13:46:46.722Z,17.20
2019-04-09T13:49:18.870Z,16.47
2019-04-09T13:52:06.782Z,13.67
2019-04-09T13:54:37.430Z,17.70
2019-04-09T13:57:07.568Z,12.80
2019-04-09T13:59:38.352Z,14.83
2019-04-09T14:02:09.429Z,13.77
2019-04-09T14:04:43.895Z,12.80
2019-04-09T14:07:13.699Z,12.97
2019-04-09T14:09:43.925Z,14.00
2019-04-09T14:12:14.774Z,18.83
2019-04-09T14:14:44.947Z,14.43
2019-04-09T14:17:15.685Z,13.90
2019-04-09T14:19:52.740Z,16.60
2019-04-09T14:22:16.694Z,14.60
2019-04-09T14:24:47.174Z,14.50
2019-04-09T14:27:28.171Z,14.67
2019-04-09T14:29:49.359Z,17.70
2019-04-09T14:32:19.602Z,16.70
2019-04-09T14:34:49.452Z,14.00
2019-04-09T14:37:19.162Z,16.33
2019-04-09T14:39:49.071Z,15.23
2019-04-09T14:42:20.017Z,14.40
2019-04-09T14:44:49.753Z,15.40
2019-04-09T14:47:20.043Z,16.27
2019-04-09T14:49:49.951Z,15.33
2019-04-09T14:52:20.400Z,14.87
2019-04-09T14:54:50.420Z,14.43
2019-04-09T14:57:20.754Z,14.10
2019-04-09T14:59:50.592Z,13.30
2019-04-09T15:02:20.332Z,15.27
2019-04-09T15:04:50.334Z,13.70
2019-04-09T15:07:19.998Z,14.17
2019-04-09T15:09:49.983Z,14.73
2019-04-09T15:12:20.010Z,14.63
2019-04-09T15:14:51.018Z,15.97
2019-04-09T15:17:21.074Z,13.83
2019-04-09T15:19:50.786Z,17.53
2019-04-09T15:22:20.593Z,14.20
2019-04-09T15:24:51.045Z,13.53
2019-04-09T15:27:21.770Z,16.37
2019-04-09T15:29:52.198Z,13.73
2019-04-09T15:32:23.829Z,14.13
2019-04-09T15:34:53.633Z,14.93
2019-04-09T15:37:23.541Z,12.17
2019-04-09T15:39:54.356Z,15.77
2019-04-09T15:42:24.076Z,15.60
2019-04-09T15:44:53.907Z,15.00
2019-04-09T15:47:23.626Z,12.40
2019-04-09T15:49:54.464Z,14.37
2019-04-09T15:52:24.393Z,14.30
2019-04-09T15:54:54.853Z,16.67
2019-04-09T15:57:25.686Z,13.97
2019-04-09T15:59:55.833Z,15.37
2019-04-09T16:02:25.506Z,20.53
2019-04-09T16:04:58.795Z,16.30
2019-04-09T16:07:28.793Z,14.90
2019-04-09T16:09:58.495Z,14.30
2019-04-09T16:12:29.060Z,14.40
2019-04-09T16:14:58.887Z,17.00
2019-04-09T16:17:28.850Z,14.90
2019-04-09T16:19:58.765Z,14.40
2019-04-09T16:22:28.504Z,12.80
2019-04-09T16:24:59.193Z,15.33
2019-04-09T16:27:30.320Z,13.57
2019-04-09T16:30:01.076Z,12.43
2019-04-09T16:32:31.536Z,14.03
2019-04-09T16:35:01.402Z,19.13
2019-04-09T16:37:31.954Z,13.93
2019-04-09T16:40:02.591Z,18.23
2019-04-09T16:42:39.798Z,18.10
2019-04-09T16:45:08.216Z,13.63
2019-04-09T16:47:36.563Z,15.57
2019-04-09T16:50:08.284Z,14.53
2019-04-09T16:52:38.508Z,19.23
2019-04-09T16:55:08.726Z,14.43
2019-04-09T16:57:38.441Z,15.87
2019-04-09T17:00:11.424Z,16.73
2019-04-09T17:02:41.290Z,13.70
2019-04-09T17:05:11.250Z,12.70
2019-04-09T17:07:41.962Z,15.77
2019-04-09T17:10:12.067Z,11.50
2019-04-09T17:12:42.289Z,13.50
2019-04-09T17:15:13.389Z,12.53
2019-04-09T17:17:44.397Z,14.30
2019-04-09T17:20:14.855Z,13.60
2019-04-09T17:22:45.066Z,15.00
2019-04-09T17:25:16.485Z,14.00
2019-04-09T17:27:46.810Z,10.80
2019-04-09T17:30:17.692Z,12.47
2019-04-09T17:32:47.395Z,10.70
2019-04-09T17:35:17.045Z,13.20
2019-04-09T17:37:46.682Z,17.73
2019-04-09T17:40:17.426Z,16.40
2019-04-09T17:42:47.326Z,10.53
2019-04-09T17:45:18.040Z,10.47
2019-04-09T17:47:47.719Z,13.03
2019-04-09T17:50:17.965Z,10.20
2019-04-09T17:52:48.123Z,9.30
2019-04-09T17:55:18.970Z,12.90
2019-04-09T17:57:48.903Z,13.80
2019-04-09T18:00:22.098Z,11.20
2019-04-09T18:02:53.126Z,8.93
2019-04-09T18:05:23.190Z,8.17
2019-04-09T18:07:53.174Z,15.40
2019-04-09T18:10:23.393Z,8.63
2019-04-09T18:12:53.088Z,8.10
2019-04-09T18:15:23.195Z,9.90
2019-04-09T18:17:52.921Z,9.30
2019-04-09T18:20:22.685Z,8.70
2019-04-09T18:22:52.310Z,8.00
2019-04-09T18:25:22.050Z,7.72
2019-04-09T18:27:51.995Z,9.13
2019-04-09T18:30:22.311Z,8.63
2019-04-09T18:33:11.972Z,6.97
2019-04-09T18:35:41.999Z,9.90
2019-04-09T18:38:12.706Z,6.90
2019-04-09T18:40:43.090Z,6.60
2019-04-09T18:43:12.837Z,8.37
2019-04-09T18:45:43.553Z,10.20
2019-04-09T18:48:13.279Z,8.70
2019-04-09T18:50:43.348Z,9.17
2019-04-09T18:53:13.218Z,9.43
2019-04-09T18:55:42.901Z,7.10
2019-04-09T18:58:12.577Z,9.20
2019-04-09T19:00:42.390Z,7.30
2019-04-09T19:03:12.045Z,6.70
2019-04-09T19:05:42.825Z,7.63
2019-04-09T19:08:12.677Z,6.70
2019-04-09T19:10:43.311Z,6.90
2019-04-09T19:13:14.690Z,8.93
2019-04-09T19:15:45.885Z,6.37
2019-04-09T19:18:16.296Z,7.93
2019-04-09T19:20:49.084Z,6.27
2019-04-09T19:23:18.744Z,6.70
2019-04-09T19:25:48.592Z,8.20
2019-04-09T19:28:19.134Z,8.67
2019-04-09T19:30:49.255Z,8.53
2019-04-09T19:33:18.842Z,12.10
2019-04-09T19:35:49.895Z,8.50
2019-04-09T19:38:22.995Z,7.70
2019-04-09T19:40:58.737Z,6.73
2019-04-09T19:43:34.449Z,7.77
2019-04-09T19:46:06.721Z,7.90
2019-04-09T19:48:37.997Z,7.47
2019-04-09T19:51:09.023Z,7.70
2019-04-09T19:53:40.131Z,7.20
2019-04-09T19:56:10.999Z,5.90
2019-04-09T19:58:47.233Z,7.83
2019-04-09T20:01:12.453Z,11.60
2019-04-09T20:03:43.136Z,7.17
2019-04-09T20:06:13.450Z,9.40
2019-04-09T20:08:44.360Z,6.47
2019-04-09T20:11:15.221Z,7.63
2019-04-09T20:13:46.229Z,7.63
2019-04-09T20:16:17.117Z,10.10
2019-04-09T20:18:48.093Z,8.83
2019-04-09T20:21:18.765Z,7.20
2019-04-09T20:23:49.063Z,8.73
2019-04-09T20:26:20.025Z,6.90
2019-04-09T20:28:50.808Z,9.37
2019-04-09T20:31:20.797Z,7.30
2019-04-09T20:33:51.747Z,7.53
2019-04-09T20:36:42.982Z,7.37
2019-04-09T20:39:13.811Z,7.90
2019-04-09T20:41:44.132Z,7.23
2019-04-09T20:44:14.002Z,6.50
2019-04-09T20:46:44.266Z,6.43
2019-04-09T20:49:14.795Z,6.70
2019-04-09T20:51:44.590Z,5.27
2019-04-09T20:54:16.395Z,6.77
2019-04-09T20:56:46.164Z,8.27
2019-04-09T20:59:35.649Z,7.23
2019-04-09T21:02:20.126Z,6.40
2019-04-09T21:04:50.010Z,6.90
2019-04-09T21:07:20.093Z,6.80
2019-04-09T21:09:50.068Z,6.23
2019-04-09T21:12:20.020Z,7.83
2019-04-09T21:14:51.193Z,6.87
2019-04-09T21:17:21.773Z,6.20
2019-04-09T21:19:51.602Z,7.00
2019-04-09T21:22:21.482Z,7.80
2019-04-09T21:24:52.102Z,7.30
2019-04-09T21:27:21.961Z,8.10
2019-04-09T21:29:59.715Z,7.67
2019-04-09T21:32:31.370Z,9.07
2019-04-09T21:35:01.306Z,7.10
2019-04-09T21:37:31.188Z,6.57
2019-04-09T21:40:00.830Z,7.03
2019-04-09T21:42:31.615Z,14.33
2019-04-09T21:45:01.423Z,15.37
2019-04-09T21:47:32.301Z,10.83
2019-04-09T21:50:02.760Z,8.13
2019-04-09T21:52:32.728Z,8.40
2019-04-09T21:55:02.554Z,9.10
2019-04-09T21:57:32.349Z,8.60
2019-04-09T22:00:02.188Z,9.00
2019-04-09T22:02:32.138Z,9.60
2019-04-09T22:05:01.952Z,7.97
2019-04-09T22:07:32.725Z,9.10
2019-04-09T22:10:05.170Z,10.13
2019-04-09T22:12:47.735Z,7.33
2019-04-09T22:15:18.630Z,8.50
2019-04-09T22:17:48.701Z,8.53
2019-04-09T22:20:18.467Z,10.90
2019-04-09T22:22:49.524Z,10.93
2019-04-09T22:25:19.252Z,8.33
2019-04-09T22:27:49.845Z,8.80
2019-04-09T22:30:20.639Z,10.37
2019-04-09T22:32:51.155Z,10.80
2019-04-09T22:35:21.825Z,9.30
2019-04-09T22:37:51.864Z,10.67
2019-04-09T22:40:21.799Z,10.67
2019-04-09T22:42:51.617Z,8.67
2019-04-09T22:45:21.474Z,13.10
2019-04-09T22:47:51.537Z,10.33
2019-04-09T22:50:21.865Z,9.57
2019-04-09T22:52:52.121Z,12.00
2019-04-09T22:55:22.406Z,9.30
2019-04-09T22:57:52.731Z,9.90
2019-04-09T23:00:24.324Z,10.67
2019-04-09T23:03:11.984Z,11.20
2019-04-09T23:05:43.394Z,11.00
2019-04-09T23:08:18.234Z,11.50
2019-04-09T23:10:56.369Z,12.50
2019-04-09T23:13:26.911Z,11.80
2019-04-09T23:15:57.350Z,9.57
2019-04-09T23:18:27.253Z,10.77
2019-04-09T23:20:56.988Z,10.20
2019-04-09T23:23:26.955Z,11.23
2019-04-09T23:25:57.305Z,8.90
2019-04-09T23:28:27.512Z,10.40
2019-04-09T23:30:58.725Z,8.93
2019-04-09T23:33:28.774Z,10.87
2019-04-09T23:35:59.383Z,9.83
2019-04-09T23:38:29.219Z,9.50
2019-04-09T23:40:59.709Z,9.07
2019-04-09T23:43:30.020Z,11.53
2019-04-09T23:45:59.762Z,9.83
2019-04-09T23:48:30.351Z,11.17
2019-04-09T23:51:03.712Z,12.27
2019-04-09T23:53:32.803Z,10.63
2019-04-09T23:56:03.188Z,12.23
2019-04-09T23:58:33.387Z,12.03
